sensor_id;sensor_type;location;lat;lon;timestamp;temperature;humidity
5246;DHT22;54412;51.206;6.888;2023-06-24T00:02:10;21.30;99.90
5246;DHT22;54412;51.206;6.888;2023-06-24T00:04:35;21.30;99.90
5246;DHT22;54412;51.206;6.888;2023-06-24T00:07:01;21.30;99.90
5246;DHT22;54412;51.206;6.888;2023-06-24T00:09:27;21.30;99.90
5246;DHT22;54412;51.206;6.888;2023-06-24T00:11:57;21.30;99.90
5246;DHT22;54412;51.206;6.888;2023-06-24T00:14:24;21.20;99.90
5246;DHT22;54412;51.206;6.888;2023-06-24T00:16:52;21.10;99.90
5246;DHT22;54412;51.206;6.888;2023-06-24T00:19:20;21.10;99.90
5246;DHT22;54412;51.206;6.888;2023-06-24T00:21:50;21.10;99.90
5246;DHT22;54412;51.206;6.888;2023-06-24T00:24:17;21.10;99.90
5246;DHT22;54412;51.206;6.888;2023-06-24T00:26:46;21.10;99.90
5246;DHT22;54412;51.206;6.888;2023-06-24T00:29:13;21.10;99.90
5246;DHT22;54412;51.206;6.888;2023-06-24T00:31:39;21.10;99.90
5246;DHT22;54412;51.206;6.888;2023-06-24T00:34:05;21.00;99.90
5246;DHT22;54412;51.206;6.888;2023-06-24T00:36:31;21.00;99.90
5246;DHT22;54412;51.206;6.888;2023-06-24T00:39:01;20.90;99.90
5246;DHT22;54412;51.206;6.888;2023-06-24T00:41:32;20.70;99.90
5246;DHT22;54412;51.206;6.888;2023-06-24T00:43:59;20.80;99.90
5246;DHT22;54412;51.206;6.888;2023-06-24T00:46:26;20.80;99.90
5246;DHT22;54412;51.206;6.888;2023-06-24T00:48:55;20.60;99.90
5246;DHT22;54412;51.206;6.888;2023-06-24T00:51:22;20.70;99.90
5246;DHT22;54412;51.206;6.888;2023-06-24T00:54:00;20.80;99.90
5246;DHT22;54412;51.206;6.888;2023-06-24T00:56:28;20.80;99.90
5246;DHT22;54412;51.206;6.888;2023-06-24T00:58:58;20.90;99.90
5246;DHT22;54412;51.206;6.888;2023-06-24T01:01:32;21.00;99.90
5246;DHT22;54412;51.206;6.888;2023-06-24T01:04:01;20.90;99.90
5246;DHT22;54412;51.206;6.888;2023-06-24T01:06:28;20.90;99.90
5246;DHT22;54412;51.206;6.888;2023-06-24T01:08:59;20.80;99.90
5246;DHT22;54412;51.206;6.888;2023-06-24T01:11:26;20.80;99.90
5246;DHT22;54412;51.206;6.888;2023-06-24T01:13:52;20.80;99.90
5246;DHT22;54412;51.206;6.888;2023-06-24T01:19:17;20.70;99.90
5246;DHT22;54412;51.206;6.888;2023-06-24T01:22:12;20.70;99.90
5246;DHT22;54412;51.206;6.888;2023-06-24T01:28:07;20.70;99.90
5246;DHT22;54412;51.206;6.888;2023-06-24T01:33:32;20.70;99.90
5246;DHT22;54412;51.206;6.888;2023-06-24T01:36:08;20.70;99.90
5246;DHT22;54412;51.206;6.888;2023-06-24T01:38:52;20.70;99.90
5246;DHT22;54412;51.206;6.888;2023-06-24T01:41:31;20.70;99.90
5246;DHT22;54412;51.206;6.888;2023-06-24T01:44:01;20.70;99.90
5246;DHT22;54412;51.206;6.888;2023-06-24T01:46:29;20.70;99.90
5246;DHT22;54412;51.206;6.888;2023-06-24T01:48:59;20.60;99.90
5246;DHT22;54412;51.206;6.888;2023-06-24T01:51:31;20.70;99.90
5246;DHT22;54412;51.206;6.888;2023-06-24T01:54:06;20.60;99.90
5246;DHT22;54412;51.206;6.888;2023-06-24T01:56:36;20.70;99.90
5246;DHT22;54412;51.206;6.888;2023-06-24T01:59:05;20.60;99.90
5246;DHT22;54412;51.206;6.888;2023-06-24T02:01:33;20.40;99.90
5246;DHT22;54412;51.206;6.888;2023-06-24T02:04:03;20.20;99.90
5246;DHT22;54412;51.206;6.888;2023-06-24T02:06:32;20.10;99.90
5246;DHT22;54412;51.206;6.888;2023-06-24T02:08:59;20.20;99.90
5246;DHT22;54412;51.206;6.888;2023-06-24T02:11:28;20.30;99.90
5246;DHT22;54412;51.206;6.888;2023-06-24T02:13:57;20.40;99.90
5246;DHT22;54412;51.206;6.888;2023-06-24T02:16:26;20.40;99.90
5246;DHT22;54412;51.206;6.888;2023-06-24T02:18:55;20.40;99.90
5246;DHT22;54412;51.206;6.888;2023-06-24T02:21:23;20.30;99.90
5246;DHT22;54412;51.206;6.888;2023-06-24T02:23:51;20.30;99.90
5246;DHT22;54412;51.206;6.888;2023-06-24T02:26:18;20.30;99.90
5246;DHT22;54412;51.206;6.888;2023-06-24T02:28:45;20.30;99.90
5246;DHT22;54412;51.206;6.888;2023-06-24T02:31:14;20.10;99.90
5246;DHT22;54412;51.206;6.888;2023-06-24T02:33:41;20.00;99.90
5246;DHT22;54412;51.206;6.888;2023-06-24T02:36:08;20.20;99.90
5246;DHT22;54412;51.206;6.888;2023-06-24T02:38:33;20.30;99.90
5246;DHT22;54412;51.206;6.888;2023-06-24T02:40:59;20.30;99.90
5246;DHT22;54412;51.206;6.888;2023-06-24T02:43:28;20.20;99.90
5246;DHT22;54412;51.206;6.888;2023-06-24T02:45:53;20.20;99.90
5246;DHT22;54412;51.206;6.888;2023-06-24T02:48:20;20.20;99.90
5246;DHT22;54412;51.206;6.888;2023-06-24T02:50:47;20.10;99.90
5246;DHT22;54412;51.206;6.888;2023-06-24T02:53:14;20.10;99.90
5246;DHT22;54412;51.206;6.888;2023-06-24T02:55:41;20.20;99.90
5246;DHT22;54412;51.206;6.888;2023-06-24T02:58:09;20.10;99.90
5246;DHT22;54412;51.206;6.888;2023-06-24T03:00:38;20.10;99.90
5246;DHT22;54412;51.206;6.888;2023-06-24T03:03:05;20.00;99.90
5246;DHT22;54412;51.206;6.888;2023-06-24T03:05:32;20.10;99.90
5246;DHT22;54412;51.206;6.888;2023-06-24T03:07:58;20.00;99.90
5246;DHT22;54412;51.206;6.888;2023-06-24T03:10:25;20.00;99.90
5246;DHT22;54412;51.206;6.888;2023-06-24T03:12:52;20.20;99.90
5246;DHT22;54412;51.206;6.888;2023-06-24T03:15:17;20.10;99.90
5246;DHT22;54412;51.206;6.888;2023-06-24T03:17:44;20.10;99.90
5246;DHT22;54412;51.206;6.888;2023-06-24T03:20:10;20.10;99.90
5246;DHT22;54412;51.206;6.888;2023-06-24T03:22:36;20.10;99.90
5246;DHT22;54412;51.206;6.888;2023-06-24T03:25:02;20.20;99.90
5246;DHT22;54412;51.206;6.888;2023-06-24T03:27:28;20.20;99.90
5246;DHT22;54412;51.206;6.888;2023-06-24T03:29:53;20.10;99.90
5246;DHT22;54412;51.206;6.888;2023-06-24T03:32:19;20.10;99.90
5246;DHT22;54412;51.206;6.888;2023-06-24T03:34:45;20.10;99.90
5246;DHT22;54412;51.206;6.888;2023-06-24T03:37:10;20.10;99.90
5246;DHT22;54412;51.206;6.888;2023-06-24T03:39:36;20.10;99.90
5246;DHT22;54412;51.206;6.888;2023-06-24T03:42:02;20.10;99.90
5246;DHT22;54412;51.206;6.888;2023-06-24T03:44:28;20.10;99.90
5246;DHT22;54412;51.206;6.888;2023-06-24T03:46:54;20.10;99.90
5246;DHT22;54412;51.206;6.888;2023-06-24T03:49:19;20.10;99.90
5246;DHT22;54412;51.206;6.888;2023-06-24T03:51:45;20.10;99.90
5246;DHT22;54412;51.206;6.888;2023-06-24T03:54:11;20.10;99.90
5246;DHT22;54412;51.206;6.888;2023-06-24T03:56:36;20.10;99.90
5246;DHT22;54412;51.206;6.888;2023-06-24T03:59:02;20.10;99.90
5246;DHT22;54412;51.206;6.888;2023-06-24T04:01:27;20.10;99.90
5246;DHT22;54412;51.206;6.888;2023-06-24T04:03:57;20.10;99.90
5246;DHT22;54412;51.206;6.888;2023-06-24T04:06:23;20.10;99.90
5246;DHT22;54412;51.206;6.888;2023-06-24T04:08:49;19.80;99.90
5246;DHT22;54412;51.206;6.888;2023-06-24T04:11:17;19.70;99.90
5246;DHT22;54412;51.206;6.888;2023-06-24T04:13:45;19.80;99.90
5246;DHT22;54412;51.206;6.888;2023-06-24T04:16:11;20.00;99.90
5246;DHT22;54412;51.206;6.888;2023-06-24T04:18:37;20.10;99.90
5246;DHT22;54412;51.206;6.888;2023-06-24T04:21:05;20.20;99.90
5246;DHT22;54412;51.206;6.888;2023-06-24T04:23:34;20.10;99.90
5246;DHT22;54412;51.206;6.888;2023-06-24T04:26:00;20.20;99.90
5246;DHT22;54412;51.206;6.888;2023-06-24T04:28:26;20.20;99.90
5246;DHT22;54412;51.206;6.888;2023-06-24T04:30:52;20.10;99.90
5246;DHT22;54412;51.206;6.888;2023-06-24T04:33:17;19.90;99.90
5246;DHT22;54412;51.206;6.888;2023-06-24T04:35:43;19.60;99.90
5246;DHT22;54412;51.206;6.888;2023-06-24T04:38:09;19.60;99.90
5246;DHT22;54412;51.206;6.888;2023-06-24T04:40:35;19.60;99.90
5246;DHT22;54412;51.206;6.888;2023-06-24T04:43:01;19.70;99.90
5246;DHT22;54412;51.206;6.888;2023-06-24T04:45:27;19.70;99.90
5246;DHT22;54412;51.206;6.888;2023-06-24T04:47:53;19.60;99.90
5246;DHT22;54412;51.206;6.888;2023-06-24T04:50:18;19.50;99.90
5246;DHT22;54412;51.206;6.888;2023-06-24T04:52:44;19.40;99.90
5246;DHT22;54412;51.206;6.888;2023-06-24T04:55:10;19.20;99.90
5246;DHT22;54412;51.206;6.888;2023-06-24T04:57:35;19.30;99.90
5246;DHT22;54412;51.206;6.888;2023-06-24T05:00:01;19.30;99.90
5246;DHT22;54412;51.206;6.888;2023-06-24T05:02:28;19.40;99.90
5246;DHT22;54412;51.206;6.888;2023-06-24T05:04:53;19.40;99.90
5246;DHT22;54412;51.206;6.888;2023-06-24T05:07:19;19.40;99.90
5246;DHT22;54412;51.206;6.888;2023-06-24T05:09:47;19.40;99.90
5246;DHT22;54412;51.206;6.888;2023-06-24T05:12:13;19.40;99.90
5246;DHT22;54412;51.206;6.888;2023-06-24T05:14:39;19.30;99.90
5246;DHT22;54412;51.206;6.888;2023-06-24T05:17:05;19.40;99.90
5246;DHT22;54412;51.206;6.888;2023-06-24T05:19:31;19.60;99.90
5246;DHT22;54412;51.206;6.888;2023-06-24T05:21:57;19.60;99.90
5246;DHT22;54412;51.206;6.888;2023-06-24T05:24:22;19.50;99.90
5246;DHT22;54412;51.206;6.888;2023-06-24T05:26:49;19.40;99.90
5246;DHT22;54412;51.206;6.888;2023-06-24T05:29:16;19.60;99.90
5246;DHT22;54412;51.206;6.888;2023-06-24T05:31:42;19.60;99.90
5246;DHT22;54412;51.206;6.888;2023-06-24T05:34:08;19.70;99.90
5246;DHT22;54412;51.206;6.888;2023-06-24T05:36:34;19.70;99.90
5246;DHT22;54412;51.206;6.888;2023-06-24T05:39:00;19.70;99.90
5246;DHT22;54412;51.206;6.888;2023-06-24T05:41:27;19.70;99.90
5246;DHT22;54412;51.206;6.888;2023-06-24T05:44:03;19.80;99.90
5246;DHT22;54412;51.206;6.888;2023-06-24T05:46:30;19.90;99.90
5246;DHT22;54412;51.206;6.888;2023-06-24T05:48:56;20.10;99.90
5246;DHT22;54412;51.206;6.888;2023-06-24T05:51:22;19.80;99.90
5246;DHT22;54412;51.206;6.888;2023-06-24T05:53:48;19.80;99.90
5246;DHT22;54412;51.206;6.888;2023-06-24T05:56:13;20.00;99.90
5246;DHT22;54412;51.206;6.888;2023-06-24T05:58:39;20.10;99.90
5246;DHT22;54412;51.206;6.888;2023-06-24T06:01:07;20.00;99.90
5246;DHT22;54412;51.206;6.888;2023-06-24T06:03:33;20.10;99.90
5246;DHT22;54412;51.206;6.888;2023-06-24T06:05:58;20.10;99.90
5246;DHT22;54412;51.206;6.888;2023-06-24T06:08:24;20.20;99.90
5246;DHT22;54412;51.206;6.888;2023-06-24T06:10:50;20.40;99.90
5246;DHT22;54412;51.206;6.888;2023-06-24T06:13:15;20.40;99.90
5246;DHT22;54412;51.206;6.888;2023-06-24T06:15:41;20.50;99.90
5246;DHT22;54412;51.206;6.888;2023-06-24T06:18:06;20.50;99.90
5246;DHT22;54412;51.206;6.888;2023-06-24T06:20:32;20.60;99.90
5246;DHT22;54412;51.206;6.888;2023-06-24T06:22:58;20.70;99.90
5246;DHT22;54412;51.206;6.888;2023-06-24T06:25:23;20.70;99.90
5246;DHT22;54412;51.206;6.888;2023-06-24T06:27:49;20.60;99.90
5246;DHT22;54412;51.206;6.888;2023-06-24T06:30:15;20.80;99.90
5246;DHT22;54412;51.206;6.888;2023-06-24T06:32:41;20.60;99.90
5246;DHT22;54412;51.206;6.888;2023-06-24T06:35:07;20.60;99.90
5246;DHT22;54412;51.206;6.888;2023-06-24T06:37:33;20.80;99.90
5246;DHT22;54412;51.206;6.888;2023-06-24T06:39:59;20.90;99.90
5246;DHT22;54412;51.206;6.888;2023-06-24T06:42:25;21.00;99.90
5246;DHT22;54412;51.206;6.888;2023-06-24T06:44:50;21.10;99.90
5246;DHT22;54412;51.206;6.888;2023-06-24T06:47:16;21.30;99.90
5246;DHT22;54412;51.206;6.888;2023-06-24T06:49:42;21.30;99.90
5246;DHT22;54412;51.206;6.888;2023-06-24T06:52:08;21.30;99.90
5246;DHT22;54412;51.206;6.888;2023-06-24T06:54:33;21.30;99.90
5246;DHT22;54412;51.206;6.888;2023-06-24T06:57:03;21.20;99.90
5246;DHT22;54412;51.206;6.888;2023-06-24T06:59:30;21.50;99.90
5246;DHT22;54412;51.206;6.888;2023-06-24T07:01:56;21.50;99.90
5246;DHT22;54412;51.206;6.888;2023-06-24T07:04:22;21.30;99.90
5246;DHT22;54412;51.206;6.888;2023-06-24T07:06:48;21.40;99.90
5246;DHT22;54412;51.206;6.888;2023-06-24T07:09:14;21.50;99.90
5246;DHT22;54412;51.206;6.888;2023-06-24T07:11:40;21.40;99.90
5246;DHT22;54412;51.206;6.888;2023-06-24T07:14:07;21.60;99.90
5246;DHT22;54412;51.206;6.888;2023-06-24T07:16:32;21.70;99.90
5246;DHT22;54412;51.206;6.888;2023-06-24T07:18:58;21.90;99.90
5246;DHT22;54412;51.206;6.888;2023-06-24T07:21:24;21.90;99.90
5246;DHT22;54412;51.206;6.888;2023-06-24T07:23:49;22.00;99.90
5246;DHT22;54412;51.206;6.888;2023-06-24T07:26:15;22.20;99.90
5246;DHT22;54412;51.206;6.888;2023-06-24T07:28:41;22.30;99.90
5246;DHT22;54412;51.206;6.888;2023-06-24T07:31:07;22.20;99.90
5246;DHT22;54412;51.206;6.888;2023-06-24T07:33:33;22.30;99.90
5246;DHT22;54412;51.206;6.888;2023-06-24T07:36:00;22.40;99.90
5246;DHT22;54412;51.206;6.888;2023-06-24T07:38:27;22.30;99.90
5246;DHT22;54412;51.206;6.888;2023-06-24T07:40:54;22.30;99.90
5246;DHT22;54412;51.206;6.888;2023-06-24T07:43:19;22.30;99.90
5246;DHT22;54412;51.206;6.888;2023-06-24T07:45:45;22.30;99.90
5246;DHT22;54412;51.206;6.888;2023-06-24T07:48:11;22.50;99.90
5246;DHT22;54412;51.206;6.888;2023-06-24T07:50:38;22.50;99.90
5246;DHT22;54412;51.206;6.888;2023-06-24T07:53:04;22.50;99.90
5246;DHT22;54412;51.206;6.888;2023-06-24T07:55:30;22.70;99.90
5246;DHT22;54412;51.206;6.888;2023-06-24T07:57:56;22.60;99.90
5246;DHT22;54412;51.206;6.888;2023-06-24T08:00:23;22.90;99.90
5246;DHT22;54412;51.206;6.888;2023-06-24T08:02:49;23.00;99.90
5246;DHT22;54412;51.206;6.888;2023-06-24T08:05:15;22.90;99.90
5246;DHT22;54412;51.206;6.888;2023-06-24T08:07:44;22.90;99.90
5246;DHT22;54412;51.206;6.888;2023-06-24T08:10:09;23.00;99.90
5246;DHT22;54412;51.206;6.888;2023-06-24T08:12:35;23.20;99.90
5246;DHT22;54412;51.206;6.888;2023-06-24T08:15:01;23.20;99.90
5246;DHT22;54412;51.206;6.888;2023-06-24T08:17:27;23.20;99.90
5246;DHT22;54412;51.206;6.888;2023-06-24T08:19:53;23.30;99.90
5246;DHT22;54412;51.206;6.888;2023-06-24T08:22:19;23.20;99.90
5246;DHT22;54412;51.206;6.888;2023-06-24T08:24:45;23.30;99.90
5246;DHT22;54412;51.206;6.888;2023-06-24T08:27:10;23.50;99.90
5246;DHT22;54412;51.206;6.888;2023-06-24T08:29:36;23.30;99.90
5246;DHT22;54412;51.206;6.888;2023-06-24T08:32:03;23.40;99.90
5246;DHT22;54412;51.206;6.888;2023-06-24T08:34:32;23.50;99.90
5246;DHT22;54412;51.206;6.888;2023-06-24T08:36:58;23.70;99.90
5246;DHT22;54412;51.206;6.888;2023-06-24T08:39:24;23.80;99.90
5246;DHT22;54412;51.206;6.888;2023-06-24T08:41:50;24.00;99.90
5246;DHT22;54412;51.206;6.888;2023-06-24T08:44:16;24.00;99.90
5246;DHT22;54412;51.206;6.888;2023-06-24T08:46:41;24.20;99.90
5246;DHT22;54412;51.206;6.888;2023-06-24T08:52:02;24.30;99.90
5246;DHT22;54412;51.206;6.888;2023-06-24T08:54:28;24.20;99.90
5246;DHT22;54412;51.206;6.888;2023-06-24T08:56:55;24.10;99.90
5246;DHT22;54412;51.206;6.888;2023-06-24T08:59:21;24.10;99.90
5246;DHT22;54412;51.206;6.888;2023-06-24T09:01:47;24.10;99.90
5246;DHT22;54412;51.206;6.888;2023-06-24T09:04:13;24.10;99.90
5246;DHT22;54412;51.206;6.888;2023-06-24T09:06:38;24.20;99.90
5246;DHT22;54412;51.206;6.888;2023-06-24T09:09:04;24.40;99.90
5246;DHT22;54412;51.206;6.888;2023-06-24T09:11:30;24.40;99.90
5246;DHT22;54412;51.206;6.888;2023-06-24T09:14:01;24.50;99.90
5246;DHT22;54412;51.206;6.888;2023-06-24T09:16:26;24.50;99.90
5246;DHT22;54412;51.206;6.888;2023-06-24T09:18:54;24.70;99.90
5246;DHT22;54412;51.206;6.888;2023-06-24T09:21:27;24.80;99.90
5246;DHT22;54412;51.206;6.888;2023-06-24T09:23:57;24.70;99.90
5246;DHT22;54412;51.206;6.888;2023-06-24T09:26:27;24.80;99.90
5246;DHT22;54412;51.206;6.888;2023-06-24T09:28:55;24.70;99.90
5246;DHT22;54412;51.206;6.888;2023-06-24T09:31:23;24.70;99.90
5246;DHT22;54412;51.206;6.888;2023-06-24T09:33:49;24.80;99.90
5246;DHT22;54412;51.206;6.888;2023-06-24T09:36:15;24.90;99.90
5246;DHT22;54412;51.206;6.888;2023-06-24T09:38:44;25.10;99.90
5246;DHT22;54412;51.206;6.888;2023-06-24T09:41:10;25.20;99.90
5246;DHT22;54412;51.206;6.888;2023-06-24T09:43:38;25.20;99.90
5246;DHT22;54412;51.206;6.888;2023-06-24T09:46:07;25.20;99.90
5246;DHT22;54412;51.206;6.888;2023-06-24T09:48:33;25.40;99.90
5246;DHT22;54412;51.206;6.888;2023-06-24T09:51:01;25.50;99.90
5246;DHT22;54412;51.206;6.888;2023-06-24T09:53:33;25.60;99.90
5246;DHT22;54412;51.206;6.888;2023-06-24T09:56:00;25.60;99.90
5246;DHT22;54412;51.206;6.888;2023-06-24T09:58:32;25.70;99.90
5246;DHT22;54412;51.206;6.888;2023-06-24T10:01:04;25.70;99.90
5246;DHT22;54412;51.206;6.888;2023-06-24T10:03:33;25.60;99.90
5246;DHT22;54412;51.206;6.888;2023-06-24T10:06:02;25.70;99.90
5246;DHT22;54412;51.206;6.888;2023-06-24T10:08:30;25.70;99.90
5246;DHT22;54412;51.206;6.888;2023-06-24T10:10:58;25.60;99.90
5246;DHT22;54412;51.206;6.888;2023-06-24T10:13:25;25.70;99.90
5246;DHT22;54412;51.206;6.888;2023-06-24T10:15:51;25.80;99.90
5246;DHT22;54412;51.206;6.888;2023-06-24T10:18:34;25.80;99.90
5246;DHT22;54412;51.206;6.888;2023-06-24T10:21:03;25.80;99.90
5246;DHT22;54412;51.206;6.888;2023-06-24T10:23:42;25.90;99.90
5246;DHT22;54412;51.206;6.888;2023-06-24T10:26:29;26.00;99.90
5246;DHT22;54412;51.206;6.888;2023-06-24T10:31:51;26.30;99.90
5246;DHT22;54412;51.206;6.888;2023-06-24T10:34:33;26.50;99.90
5246;DHT22;54412;51.206;6.888;2023-06-24T10:40:01;26.80;99.90
5246;DHT22;54412;51.206;6.888;2023-06-24T10:47:37;26.20;99.90
5246;DHT22;54412;51.206;6.888;2023-06-24T10:50:05;26.20;99.90
5246;DHT22;54412;51.206;6.888;2023-06-24T10:52:32;26.10;99.90
5246;DHT22;54412;51.206;6.888;2023-06-24T10:54:58;26.00;99.90
5246;DHT22;54412;51.206;6.888;2023-06-24T10:57:27;26.10;99.90
5246;DHT22;54412;51.206;6.888;2023-06-24T10:59:57;26.30;99.90
5246;DHT22;54412;51.206;6.888;2023-06-24T11:02:25;26.40;99.90
5246;DHT22;54412;51.206;6.888;2023-06-24T11:04:54;26.50;99.90
5246;DHT22;54412;51.206;6.888;2023-06-24T11:07:25;26.60;99.90
5246;DHT22;54412;51.206;6.888;2023-06-24T11:09:56;26.60;99.90
5246;DHT22;54412;51.206;6.888;2023-06-24T11:12:26;26.60;99.90
5246;DHT22;54412;51.206;6.888;2023-06-24T11:15:00;26.60;99.90
5246;DHT22;54412;51.206;6.888;2023-06-24T11:17:28;26.80;99.90
5246;DHT22;54412;51.206;6.888;2023-06-24T11:19:55;26.90;99.90
5246;DHT22;54412;51.206;6.888;2023-06-24T11:22:23;27.00;99.90
5246;DHT22;54412;51.206;6.888;2023-06-24T11:24:49;27.10;99.90
5246;DHT22;54412;51.206;6.888;2023-06-24T11:27:16;27.10;99.90
5246;DHT22;54412;51.206;6.888;2023-06-24T11:29:41;27.30;99.90
5246;DHT22;54412;51.206;6.888;2023-06-24T11:32:09;27.40;99.90
5246;DHT22;54412;51.206;6.888;2023-06-24T11:34:36;27.30;99.90
5246;DHT22;54412;51.206;6.888;2023-06-24T11:37:13;27.50;99.90
5246;DHT22;54412;51.206;6.888;2023-06-24T11:40:04;27.60;99.90
5246;DHT22;54412;51.206;6.888;2023-06-24T11:42:32;27.60;97.00
5246;DHT22;54412;51.206;6.888;2023-06-24T11:45:02;27.30;95.60
5246;DHT22;54412;51.206;6.888;2023-06-24T11:47:33;27.40;95.00
5246;DHT22;54412;51.206;6.888;2023-06-24T11:50:00;27.50;94.90
5246;DHT22;54412;51.206;6.888;2023-06-24T11:52:45;27.40;94.40
5246;DHT22;54412;51.206;6.888;2023-06-24T11:55:18;27.60;96.10
5246;DHT22;54412;51.206;6.888;2023-06-24T11:57:55;27.70;94.60
5246;DHT22;54412;51.206;6.888;2023-06-24T12:00:26;27.80;96.10
5246;DHT22;54412;51.206;6.888;2023-06-24T12:03:13;27.80;95.20
5246;DHT22;54412;51.206;6.888;2023-06-24T12:05:39;27.60;93.60
5246;DHT22;54412;51.206;6.888;2023-06-24T12:08:11;27.50;94.60
5246;DHT22;54412;51.206;6.888;2023-06-24T12:10:38;27.70;94.60
5246;DHT22;54412;51.206;6.888;2023-06-24T12:13:05;27.80;95.70
5246;DHT22;54412;51.206;6.888;2023-06-24T12:15:31;27.80;94.10
5246;DHT22;54412;51.206;6.888;2023-06-24T12:17:57;27.70;95.00
5246;DHT22;54412;51.206;6.888;2023-06-24T12:20:26;27.50;95.50
5246;DHT22;54412;51.206;6.888;2023-06-24T12:22:52;27.70;97.50
5246;DHT22;54412;51.206;6.888;2023-06-24T12:25:18;27.80;95.30
5246;DHT22;54412;51.206;6.888;2023-06-24T12:27:44;27.90;96.50
5246;DHT22;54412;51.206;6.888;2023-06-24T12:30:12;28.00;96.00
5246;DHT22;54412;51.206;6.888;2023-06-24T12:32:38;28.10;94.50
5246;DHT22;54412;51.206;6.888;2023-06-24T12:35:04;28.10;93.70
5246;DHT22;54412;51.206;6.888;2023-06-24T12:37:34;27.90;92.80
5246;DHT22;54412;51.206;6.888;2023-06-24T12:40:01;27.80;94.50
5246;DHT22;54412;51.206;6.888;2023-06-24T12:42:27;27.80;92.80
5246;DHT22;54412;51.206;6.888;2023-06-24T12:44:53;27.90;93.10
5246;DHT22;54412;51.206;6.888;2023-06-24T12:47:19;27.80;93.30
5246;DHT22;54412;51.206;6.888;2023-06-24T12:49:45;27.90;95.30
5246;DHT22;54412;51.206;6.888;2023-06-24T12:52:12;28.20;95.10
5246;DHT22;54412;51.206;6.888;2023-06-24T12:54:38;28.30;94.20
5246;DHT22;54412;51.206;6.888;2023-06-24T12:57:05;28.30;94.80
5246;DHT22;54412;51.206;6.888;2023-06-24T12:59:30;28.40;92.20
5246;DHT22;54412;51.206;6.888;2023-06-24T13:01:56;28.10;92.10
5246;DHT22;54412;51.206;6.888;2023-06-24T13:04:22;28.00;93.50
5246;DHT22;54412;51.206;6.888;2023-06-24T13:06:50;28.20;94.40
5246;DHT22;54412;51.206;6.888;2023-06-24T13:09:17;28.20;92.70
5246;DHT22;54412;51.206;6.888;2023-06-24T13:11:43;28.00;93.60
5246;DHT22;54412;51.206;6.888;2023-06-24T13:14:08;28.20;92.00
5246;DHT22;54412;51.206;6.888;2023-06-24T13:16:36;28.30;93.80
5246;DHT22;54412;51.206;6.888;2023-06-24T13:19:02;28.40;93.70
5246;DHT22;54412;51.206;6.888;2023-06-24T13:21:28;28.60;90.20
5246;DHT22;54412;51.206;6.888;2023-06-24T13:23:53;28.50;85.80
5246;DHT22;54412;51.206;6.888;2023-06-24T13:26:19;28.40;87.30
5246;DHT22;54412;51.206;6.888;2023-06-24T13:28:45;28.60;89.20
5246;DHT22;54412;51.206;6.888;2023-06-24T13:31:11;28.70;85.50
5246;DHT22;54412;51.206;6.888;2023-06-24T13:33:37;28.40;82.30
5246;DHT22;54412;51.206;6.888;2023-06-24T13:36:04;28.40;82.80
5246;DHT22;54412;51.206;6.888;2023-06-24T13:38:32;28.50;83.80
5246;DHT22;54412;51.206;6.888;2023-06-24T13:40:58;28.70;89.10
5246;DHT22;54412;51.206;6.888;2023-06-24T13:43:23;28.70;86.50
5246;DHT22;54412;51.206;6.888;2023-06-24T13:45:51;28.50;83.30
5246;DHT22;54412;51.206;6.888;2023-06-24T13:48:17;28.50;85.80
5246;DHT22;54412;51.206;6.888;2023-06-24T13:50:42;28.70;87.70
5246;DHT22;54412;51.206;6.888;2023-06-24T13:53:08;28.80;84.70
5246;DHT22;54412;51.206;6.888;2023-06-24T13:55:34;28.80;85.30
5246;DHT22;54412;51.206;6.888;2023-06-24T13:58:01;28.90;81.90
5246;DHT22;54412;51.206;6.888;2023-06-24T14:00:27;28.90;76.90
5246;DHT22;54412;51.206;6.888;2023-06-24T14:02:53;29.00;79.10
5246;DHT22;54412;51.206;6.888;2023-06-24T14:05:19;29.00;77.70
5246;DHT22;54412;51.206;6.888;2023-06-24T14:07:45;29.10;79.00
5246;DHT22;54412;51.206;6.888;2023-06-24T14:10:11;29.00;76.20
5246;DHT22;54412;51.206;6.888;2023-06-24T14:12:37;28.90;74.50
5246;DHT22;54412;51.206;6.888;2023-06-24T14:15:03;28.90;78.50
5246;DHT22;54412;51.206;6.888;2023-06-24T14:17:30;28.80;76.00
5246;DHT22;54412;51.206;6.888;2023-06-24T14:19:55;28.70;75.70
5246;DHT22;54412;51.206;6.888;2023-06-24T14:22:21;28.60;74.20
5246;DHT22;54412;51.206;6.888;2023-06-24T14:24:48;28.70;77.50
5246;DHT22;54412;51.206;6.888;2023-06-24T14:27:14;28.70;78.40
5246;DHT22;54412;51.206;6.888;2023-06-24T14:29:39;28.50;72.80
5246;DHT22;54412;51.206;6.888;2023-06-24T14:32:05;28.60;73.30
5246;DHT22;54412;51.206;6.888;2023-06-24T14:34:31;28.70;76.90
5246;DHT22;54412;51.206;6.888;2023-06-24T14:36:57;28.80;74.20
5246;DHT22;54412;51.206;6.888;2023-06-24T14:39:23;28.70;73.10
5246;DHT22;54412;51.206;6.888;2023-06-24T14:41:49;28.70;72.50
5246;DHT22;54412;51.206;6.888;2023-06-24T14:44:15;28.60;71.10
5246;DHT22;54412;51.206;6.888;2023-06-24T14:46:41;28.50;68.80
5246;DHT22;54412;51.206;6.888;2023-06-24T14:49:06;28.40;66.80
5246;DHT22;54412;51.206;6.888;2023-06-24T14:51:32;28.30;65.30
5246;DHT22;54412;51.206;6.888;2023-06-24T14:53:58;28.30;65.20
5246;DHT22;54412;51.206;6.888;2023-06-24T14:56:23;28.30;65.60
5246;DHT22;54412;51.206;6.888;2023-06-24T14:58:50;28.40;69.60
5246;DHT22;54412;51.206;6.888;2023-06-24T15:01:16;28.50;71.00
5246;DHT22;54412;51.206;6.888;2023-06-24T15:03:42;28.60;70.10
5246;DHT22;54412;51.206;6.888;2023-06-24T15:06:08;28.60;68.90
5246;DHT22;54412;51.206;6.888;2023-06-24T15:08:33;28.60;67.90
5246;DHT22;54412;51.206;6.888;2023-06-24T15:10:59;28.60;69.50
5246;DHT22;54412;51.206;6.888;2023-06-24T15:13:25;28.50;66.10
5246;DHT22;54412;51.206;6.888;2023-06-24T15:15:50;28.40;63.30
5246;DHT22;54412;51.206;6.888;2023-06-24T15:18:20;28.40;66.70
5246;DHT22;54412;51.206;6.888;2023-06-24T15:20:46;28.40;67.10
5246;DHT22;54412;51.206;6.888;2023-06-24T15:23:12;28.20;63.00
5246;DHT22;54412;51.206;6.888;2023-06-24T15:25:38;28.00;63.70
5246;DHT22;54412;51.206;6.888;2023-06-24T15:28:03;27.90;64.60
5246;DHT22;54412;51.206;6.888;2023-06-24T15:30:29;27.90;65.10
5246;DHT22;54412;51.206;6.888;2023-06-24T15:32:55;28.00;66.40
5246;DHT22;54412;51.206;6.888;2023-06-24T15:35:20;28.00;66.20
5246;DHT22;54412;51.206;6.888;2023-06-24T15:37:46;27.90;66.70
5246;DHT22;54412;51.206;6.888;2023-06-24T15:40:12;27.90;66.50
5246;DHT22;54412;51.206;6.888;2023-06-24T15:42:38;27.90;69.00
5246;DHT22;54412;51.206;6.888;2023-06-24T15:45:05;27.90;71.30
5246;DHT22;54412;51.206;6.888;2023-06-24T15:47:31;28.00;75.10
5246;DHT22;54412;51.206;6.888;2023-06-24T15:49:56;28.10;74.80
5246;DHT22;54412;51.206;6.888;2023-06-24T15:52:23;28.10;76.10
5246;DHT22;54412;51.206;6.888;2023-06-24T15:54:48;28.20;76.20
5246;DHT22;54412;51.206;6.888;2023-06-24T15:57:14;28.10;73.80
5246;DHT22;54412;51.206;6.888;2023-06-24T15:59:41;28.10;75.50
5246;DHT22;54412;51.206;6.888;2023-06-24T16:02:06;28.10;75.60
5246;DHT22;54412;51.206;6.888;2023-06-24T16:04:32;28.00;76.40
5246;DHT22;54412;51.206;6.888;2023-06-24T16:07:01;28.00;76.10
5246;DHT22;54412;51.206;6.888;2023-06-24T16:09:28;28.00;75.90